sensor_id;sensor_type;location;lat;lon;timestamp;P1;durP1;ratioP1;P2;durP2;ratioP2
8704;SDS011;4389;41.932;25.904;2023-04-15T00:00:51;11.93;;;4.17;;
8704;SDS011;4389;41.932;25.904;2023-04-15T00:03:20;8.07;;;4.00;;
8704;SDS011;4389;41.932;25.904;2023-04-15T00:05:46;8.50;;;4.40;;
8704;SDS011;4389;41.932;25.904;2023-04-15T00:08:13;5.90;;;4.00;;
8704;SDS011;4389;41.932;25.904;2023-04-15T00:10:40;11.80;;;4.80;;
8704;SDS011;4389;41.932;25.904;2023-04-15T00:13:08;13.47;;;4.70;;
8704;SDS011;4389;41.932;25.904;2023-04-15T00:15:36;7.90;;;4.00;;
8704;SDS011;4389;41.932;25.904;2023-04-15T00:18:03;7.70;;;4.97;;
8704;SDS011;4389;41.932;25.904;2023-04-15T00:20:31;11.60;;;5.53;;
8704;SDS011;4389;41.932;25.904;2023-04-15T00:22:58;8.30;;;4.23;;
8704;SDS011;4389;41.932;25.904;2023-04-15T00:25:25;11.43;;;4.70;;
8704;SDS011;4389;41.932;25.904;2023-04-15T00:27:52;7.00;;;4.70;;
8704;SDS011;4389;41.932;25.904;2023-04-15T00:30:19;12.50;;;6.27;;
8704;SDS011;4389;41.932;25.904;2023-04-15T00:32:46;9.37;;;5.27;;
8704;SDS011;4389;41.932;25.904;2023-04-15T00:35:13;12.10;;;5.40;;
8704;SDS011;4389;41.932;25.904;2023-04-15T00:37:42;7.87;;;5.23;;
8704;SDS011;4389;41.932;25.904;2023-04-15T00:40:10;8.37;;;5.50;;
8704;SDS011;4389;41.932;25.904;2023-04-15T00:42:38;10.20;;;5.50;;
8704;SDS011;4389;41.932;25.904;2023-04-15T00:45:05;15.97;;;5.07;;
8704;SDS011;4389;41.932;25.904;2023-04-15T00:47:33;11.50;;;5.70;;
8704;SDS011;4389;41.932;25.904;2023-04-15T00:50:01;11.13;;;7.63;;
8704;SDS011;4389;41.932;25.904;2023-04-15T00:52:29;17.30;;;7.57;;
8704;SDS011;4389;41.932;25.904;2023-04-15T00:54:57;14.10;;;6.50;;
8704;SDS011;4389;41.932;25.904;2023-04-15T00:57:24;10.87;;;6.43;;
8704;SDS011;4389;41.932;25.904;2023-04-15T00:59:51;19.50;;;7.40;;
8704;SDS011;4389;41.932;25.904;2023-04-15T01:02:19;11.17;;;6.33;;
8704;SDS011;4389;41.932;25.904;2023-04-15T01:04:46;15.57;;;6.33;;
8704;SDS011;4389;41.932;25.904;2023-04-15T01:07:13;17.43;;;12.57;;
8704;SDS011;4389;41.932;25.904;2023-04-15T01:09:40;22.00;;;12.23;;
8704;SDS011;4389;41.932;25.904;2023-04-15T01:12:09;21.27;;;10.70;;
8704;SDS011;4389;41.932;25.904;2023-04-15T01:14:38;17.37;;;10.53;;
8704;SDS011;4389;41.932;25.904;2023-04-15T01:17:05;21.00;;;11.13;;
8704;SDS011;4389;41.932;25.904;2023-04-15T01:19:31;21.37;;;15.27;;
8704;SDS011;4389;41.932;25.904;2023-04-15T01:21:58;13.13;;;8.10;;
8704;SDS011;4389;41.932;25.904;2023-04-15T01:24:25;21.43;;;12.10;;
8704;SDS011;4389;41.932;25.904;2023-04-15T01:26:54;23.13;;;17.37;;
8704;SDS011;4389;41.932;25.904;2023-04-15T01:29:21;18.77;;;11.00;;
8704;SDS011;4389;41.932;25.904;2023-04-15T01:31:49;15.03;;;9.83;;
8704;SDS011;4389;41.932;25.904;2023-04-15T01:34:17;17.67;;;7.70;;
8704;SDS011;4389;41.932;25.904;2023-04-15T01:36:44;15.30;;;10.20;;
8704;SDS011;4389;41.932;25.904;2023-04-15T01:39:11;19.20;;;13.03;;
8704;SDS011;4389;41.932;25.904;2023-04-15T01:41:38;15.33;;;9.90;;
8704;SDS011;4389;41.932;25.904;2023-04-15T01:44:07;16.63;;;9.70;;
8704;SDS011;4389;41.932;25.904;2023-04-15T01:46:35;17.10;;;10.30;;
8704;SDS011;4389;41.932;25.904;2023-04-15T01:49:03;14.87;;;10.57;;
8704;SDS011;4389;41.932;25.904;2023-04-15T01:51:30;12.37;;;8.33;;
8704;SDS011;4389;41.932;25.904;2023-04-15T01:53:57;13.73;;;7.20;;
8704;SDS011;4389;41.932;25.904;2023-04-15T01:56:24;12.13;;;6.63;;
8704;SDS011;4389;41.932;25.904;2023-04-15T01:58:51;9.67;;;6.00;;
8704;SDS011;4389;41.932;25.904;2023-04-15T02:01:19;13.20;;;6.83;;
8704;SDS011;4389;41.932;25.904;2023-04-15T02:03:46;12.83;;;7.00;;
8704;SDS011;4389;41.932;25.904;2023-04-15T02:06:13;17.80;;;9.83;;
8704;SDS011;4389;41.932;25.904;2023-04-15T02:08:40;16.90;;;8.50;;
8704;SDS011;4389;41.932;25.904;2023-04-15T02:11:07;11.87;;;7.00;;
8704;SDS011;4389;41.932;25.904;2023-04-15T02:13:34;13.70;;;7.00;;
8704;SDS011;4389;41.932;25.904;2023-04-15T02:16:01;14.17;;;9.67;;
8704;SDS011;4389;41.932;25.904;2023-04-15T02:18:30;20.03;;;12.90;;
8704;SDS011;4389;41.932;25.904;2023-04-15T02:20:57;15.87;;;11.77;;
8704;SDS011;4389;41.932;25.904;2023-04-15T02:23:23;15.57;;;10.20;;
8704;SDS011;4389;41.932;25.904;2023-04-15T02:25:50;15.30;;;10.07;;
8704;SDS011;4389;41.932;25.904;2023-04-15T02:28:17;13.57;;;8.83;;
8704;SDS011;4389;41.932;25.904;2023-04-15T02:30:46;12.57;;;9.00;;
8704;SDS011;4389;41.932;25.904;2023-04-15T02:33:13;12.80;;;7.37;;
8704;SDS011;4389;41.932;25.904;2023-04-15T02:35:42;12.83;;;6.43;;
8704;SDS011;4389;41.932;25.904;2023-04-15T02:38:09;14.57;;;9.07;;
8704;SDS011;4389;41.932;25.904;2023-04-15T02:40:36;13.27;;;7.30;;
8704;SDS011;4389;41.932;25.904;2023-04-15T02:43:03;11.97;;;6.40;;
8704;SDS011;4389;41.932;25.904;2023-04-15T02:45:31;14.07;;;7.23;;
8704;SDS011;4389;41.932;25.904;2023-04-15T02:47:58;16.80;;;10.53;;
8704;SDS011;4389;41.932;25.904;2023-04-15T02:50:28;20.37;;;9.00;;
8704;SDS011;4389;41.932;25.904;2023-04-15T02:52:57;28.27;;;10.07;;
8704;SDS011;4389;41.932;25.904;2023-04-15T02:55:25;16.27;;;8.60;;
8704;SDS011;4389;41.932;25.904;2023-04-15T02:57:52;15.93;;;8.07;;
8704;SDS011;4389;41.932;25.904;2023-04-15T03:00:19;13.67;;;8.30;;
8704;SDS011;4389;41.932;25.904;2023-04-15T03:02:46;18.63;;;9.10;;
8704;SDS011;4389;41.932;25.904;2023-04-15T03:05:16;14.90;;;7.53;;
8704;SDS011;4389;41.932;25.904;2023-04-15T03:07:43;17.90;;;8.10;;
8704;SDS011;4389;41.932;25.904;2023-04-15T03:10:11;17.10;;;9.70;;
8704;SDS011;4389;41.932;25.904;2023-04-15T03:12:38;12.50;;;7.30;;
8704;SDS011;4389;41.932;25.904;2023-04-15T03:15:05;12.93;;;7.37;;
8704;SDS011;4389;41.932;25.904;2023-04-15T03:17:33;16.40;;;9.30;;
8704;SDS011;4389;41.932;25.904;2023-04-15T03:20:00;18.10;;;9.93;;
8704;SDS011;4389;41.932;25.904;2023-04-15T03:22:27;12.93;;;6.30;;
8704;SDS011;4389;41.932;25.904;2023-04-15T03:24:54;15.90;;;7.10;;
8704;SDS011;4389;41.932;25.904;2023-04-15T03:27:22;16.13;;;9.33;;
8704;SDS011;4389;41.932;25.904;2023-04-15T03:29:49;20.67;;;8.43;;
8704;SDS011;4389;41.932;25.904;2023-04-15T03:32:16;12.60;;;7.83;;
8704;SDS011;4389;41.932;25.904;2023-04-15T03:34:43;11.13;;;7.10;;
8704;SDS011;4389;41.932;25.904;2023-04-15T03:37:10;15.47;;;7.20;;
8704;SDS011;4389;41.932;25.904;2023-04-15T03:39:37;14.67;;;9.27;;
8704;SDS011;4389;41.932;25.904;2023-04-15T03:42:04;9.40;;;6.40;;
8704;SDS011;4389;41.932;25.904;2023-04-15T03:44:32;13.70;;;6.70;;
8704;SDS011;4389;41.932;25.904;2023-04-15T03:46:59;20.30;;;11.00;;
8704;SDS011;4389;41.932;25.904;2023-04-15T03:49:26;23.83;;;14.60;;
8704;SDS011;4389;41.932;25.904;2023-04-15T03:51:53;13.27;;;9.00;;
8704;SDS011;4389;41.932;25.904;2023-04-15T03:54:19;12.53;;;6.23;;
8704;SDS011;4389;41.932;25.904;2023-04-15T03:56:47;12.23;;;6.40;;
8704;SDS011;4389;41.932;25.904;2023-04-15T03:59:13;11.37;;;7.23;;
8704;SDS011;4389;41.932;25.904;2023-04-15T04:01:42;17.87;;;9.07;;
8704;SDS011;4389;41.932;25.904;2023-04-15T04:04:08;15.83;;;8.50;;
8704;SDS011;4389;41.932;25.904;2023-04-15T04:06:35;20.20;;;14.17;;
8704;SDS011;4389;41.932;25.904;2023-04-15T04:09:02;11.17;;;6.80;;
8704;SDS011;4389;41.932;25.904;2023-04-15T04:11:29;15.17;;;6.17;;
8704;SDS011;4389;41.932;25.904;2023-04-15T04:13:56;10.53;;;5.50;;
8704;SDS011;4389;41.932;25.904;2023-04-15T04:16:22;13.33;;;6.23;;
8704;SDS011;4389;41.932;25.904;2023-04-15T04:18:51;13.90;;;6.90;;
8704;SDS011;4389;41.932;25.904;2023-04-15T04:21:17;10.97;;;5.77;;
8704;SDS011;4389;41.932;25.904;2023-04-15T04:23:45;8.20;;;5.43;;
8704;SDS011;4389;41.932;25.904;2023-04-15T04:26:12;17.10;;;6.97;;
8704;SDS011;4389;41.932;25.904;2023-04-15T04:28:39;14.40;;;8.27;;
8704;SDS011;4389;41.932;25.904;2023-04-15T04:31:05;11.40;;;7.03;;
8704;SDS011;4389;41.932;25.904;2023-04-15T04:33:32;10.03;;;5.63;;
8704;SDS011;4389;41.932;25.904;2023-04-15T04:36:01;10.77;;;7.70;;
8704;SDS011;4389;41.932;25.904;2023-04-15T04:38:28;15.77;;;8.67;;
8704;SDS011;4389;41.932;25.904;2023-04-15T04:40:55;9.70;;;6.57;;
8704;SDS011;4389;41.932;25.904;2023-04-15T04:43:22;15.20;;;11.40;;
8704;SDS011;4389;41.932;25.904;2023-04-15T04:45:49;14.53;;;7.60;;
8704;SDS011;4389;41.932;25.904;2023-04-15T04:48:16;10.87;;;8.70;;
8704;SDS011;4389;41.932;25.904;2023-04-15T04:50:43;17.10;;;9.20;;
8704;SDS011;4389;41.932;25.904;2023-04-15T04:53:12;12.13;;;7.90;;
8704;SDS011;4389;41.932;25.904;2023-04-15T04:55:40;10.30;;;6.57;;
8704;SDS011;4389;41.932;25.904;2023-04-15T04:58:07;9.80;;;6.83;;
8704;SDS011;4389;41.932;25.904;2023-04-15T05:00:33;9.23;;;6.70;;
8704;SDS011;4389;41.932;25.904;2023-04-15T05:03:02;12.87;;;7.13;;
8704;SDS011;4389;41.932;25.904;2023-04-15T05:05:29;8.63;;;7.03;;
8704;SDS011;4389;41.932;25.904;2023-04-15T05:07:56;14.27;;;6.97;;
8704;SDS011;4389;41.932;25.904;2023-04-15T05:10:24;8.23;;;6.90;;
8704;SDS011;4389;41.932;25.904;2023-04-15T05:12:51;7.63;;;5.53;;
8704;SDS011;4389;41.932;25.904;2023-04-15T05:15:18;10.90;;;6.50;;
8704;SDS011;4389;41.932;25.904;2023-04-15T05:17:45;7.03;;;5.60;;
8704;SDS011;4389;41.932;25.904;2023-04-15T05:20:12;8.10;;;6.63;;
8704;SDS011;4389;41.932;25.904;2023-04-15T05:22:39;6.93;;;5.00;;
8704;SDS011;4389;41.932;25.904;2023-04-15T05:25:07;13.13;;;6.17;;
8704;SDS011;4389;41.932;25.904;2023-04-15T05:27:35;8.83;;;6.50;;
8704;SDS011;4389;41.932;25.904;2023-04-15T05:30:02;8.33;;;6.60;;
8704;SDS011;4389;41.932;25.904;2023-04-15T05:32:29;9.73;;;5.07;;
8704;SDS011;4389;41.932;25.904;2023-04-15T05:34:56;7.10;;;5.30;;
8704;SDS011;4389;41.932;25.904;2023-04-15T05:37:23;13.37;;;5.03;;
8704;SDS011;4389;41.932;25.904;2023-04-15T05:39:50;7.97;;;4.47;;
8704;SDS011;4389;41.932;25.904;2023-04-15T05:42:17;7.97;;;5.27;;
8704;SDS011;4389;41.932;25.904;2023-04-15T05:44:45;7.77;;;5.60;;
8704;SDS011;4389;41.932;25.904;2023-04-15T05:47:12;9.13;;;4.47;;
8704;SDS011;4389;41.932;25.904;2023-04-15T05:49:39;5.30;;;4.33;;
8704;SDS011;4389;41.932;25.904;2023-04-15T05:52:06;12.00;;;4.87;;
8704;SDS011;4389;41.932;25.904;2023-04-15T05:54:33;9.33;;;7.63;;
8704;SDS011;4389;41.932;25.904;2023-04-15T05:56:59;9.23;;;5.57;;
8704;SDS011;4389;41.932;25.904;2023-04-15T05:59:26;10.63;;;6.60;;
8704;SDS011;4389;41.932;25.904;2023-04-15T06:01:55;9.87;;;7.47;;
8704;SDS011;4389;41.932;25.904;2023-04-15T06:04:22;10.27;;;7.63;;
8704;SDS011;4389;41.932;25.904;2023-04-15T06:06:48;15.87;;;10.70;;
8704;SDS011;4389;41.932;25.904;2023-04-15T06:09:15;8.03;;;6.50;;
8704;SDS011;4389;41.932;25.904;2023-04-15T06:11:42;12.93;;;11.13;;
8704;SDS011;4389;41.932;25.904;2023-04-15T06:14:09;6.83;;;4.67;;
8704;SDS011;4389;41.932;25.904;2023-04-15T06:16:36;6.33;;;4.83;;
8704;SDS011;4389;41.932;25.904;2023-04-15T06:19:04;9.67;;;5.77;;
8704;SDS011;4389;41.932;25.904;2023-04-15T06:21:31;10.07;;;5.63;;
8704;SDS011;4389;41.932;25.904;2023-04-15T06:23:58;9.57;;;5.13;;
8704;SDS011;4389;41.932;25.904;2023-04-15T06:26:26;7.17;;;4.93;;
8704;SDS011;4389;41.932;25.904;2023-04-15T06:28:53;6.27;;;4.87;;
8704;SDS011;4389;41.932;25.904;2023-04-15T06:31:20;5.37;;;4.03;;
8704;SDS011;4389;41.932;25.904;2023-04-15T06:33:47;5.90;;;4.60;;
8704;SDS011;4389;41.932;25.904;2023-04-15T06:36:15;6.60;;;3.83;;
8704;SDS011;4389;41.932;25.904;2023-04-15T06:38:42;10.10;;;3.93;;
8704;SDS011;4389;41.932;25.904;2023-04-15T06:41:09;7.47;;;5.30;;
8704;SDS011;4389;41.932;25.904;2023-04-15T06:43:36;8.60;;;5.63;;
8704;SDS011;4389;41.932;25.904;2023-04-15T06:46:03;13.40;;;5.80;;
8704;SDS011;4389;41.932;25.904;2023-04-15T06:48:30;10.57;;;6.43;;
8704;SDS011;4389;41.932;25.904;2023-04-15T06:50:57;7.53;;;5.40;;
8704;SDS011;4389;41.932;25.904;2023-04-15T06:53:26;7.57;;;5.20;;
8704;SDS011;4389;41.932;25.904;2023-04-15T06:55:53;7.93;;;5.87;;
8704;SDS011;4389;41.932;25.904;2023-04-15T06:58:20;11.77;;;6.47;;
8704;SDS011;4389;41.932;25.904;2023-04-15T07:00:47;11.80;;;6.70;;
8704;SDS011;4389;41.932;25.904;2023-04-15T07:03:14;7.80;;;5.03;;
8704;SDS011;4389;41.932;25.904;2023-04-15T07:05:40;6.60;;;4.97;;
8704;SDS011;4389;41.932;25.904;2023-04-15T07:08:07;6.27;;;5.20;;
8704;SDS011;4389;41.932;25.904;2023-04-15T07:10:36;8.60;;;5.33;;
8704;SDS011;4389;41.932;25.904;2023-04-15T07:13:03;5.67;;;3.90;;
8704;SDS011;4389;41.932;25.904;2023-04-15T07:15:31;10.57;;;8.60;;
8704;SDS011;4389;41.932;25.904;2023-04-15T07:17:58;8.50;;;4.90;;
8704;SDS011;4389;41.932;25.904;2023-04-15T07:20:25;9.33;;;5.33;;
8704;SDS011;4389;41.932;25.904;2023-04-15T07:22:52;6.20;;;5.13;;
8704;SDS011;4389;41.932;25.904;2023-04-15T07:25:19;7.57;;;5.50;;
8704;SDS011;4389;41.932;25.904;2023-04-15T07:27:47;6.57;;;3.90;;
8704;SDS011;4389;41.932;25.904;2023-04-15T07:30:14;9.97;;;6.37;;
8704;SDS011;4389;41.932;25.904;2023-04-15T07:32:41;6.33;;;4.57;;
8704;SDS011;4389;41.932;25.904;2023-04-15T07:35:08;12.33;;;6.53;;
8704;SDS011;4389;41.932;25.904;2023-04-15T07:37:35;7.43;;;5.30;;
8704;SDS011;4389;41.932;25.904;2023-04-15T07:40:02;10.27;;;8.20;;
8704;SDS011;4389;41.932;25.904;2023-04-15T07:42:31;9.97;;;6.70;;
8704;SDS011;4389;41.932;25.904;2023-04-15T07:44:59;6.83;;;3.40;;
8704;SDS011;4389;41.932;25.904;2023-04-15T07:47:26;9.00;;;4.60;;
8704;SDS011;4389;41.932;25.904;2023-04-15T07:49:53;6.67;;;3.80;;
8704;SDS011;4389;41.932;25.904;2023-04-15T07:52:20;7.70;;;5.87;;
8704;SDS011;4389;41.932;25.904;2023-04-15T07:54:47;5.37;;;4.03;;
8704;SDS011;4389;41.932;25.904;2023-04-15T07:57:13;7.47;;;4.00;;
8704;SDS011;4389;41.932;25.904;2023-04-15T07:59:41;5.97;;;3.50;;
8704;SDS011;4389;41.932;25.904;2023-04-15T08:02:09;6.03;;;3.50;;
8704;SDS011;4389;41.932;25.904;2023-04-15T08:04:36;7.73;;;3.77;;
8704;SDS011;4389;41.932;25.904;2023-04-15T08:07:03;5.10;;;3.63;;
8704;SDS011;4389;41.932;25.904;2023-04-15T08:09:30;3.93;;;3.20;;
8704;SDS011;4389;41.932;25.904;2023-04-15T08:11:57;8.10;;;2.97;;
8704;SDS011;4389;41.932;25.904;2023-04-15T08:14:24;7.93;;;3.87;;
8704;SDS011;4389;41.932;25.904;2023-04-15T08:16:51;5.90;;;3.77;;
8704;SDS011;4389;41.932;25.904;2023-04-15T08:19:19;4.87;;;3.63;;
8704;SDS011;4389;41.932;25.904;2023-04-15T08:21:46;7.50;;;3.23;;
8704;SDS011;4389;41.932;25.904;2023-04-15T08:24:12;19.20;;;6.63;;
8704;SDS011;4389;41.932;25.904;2023-04-15T08:26:39;8.47;;;3.07;;
8704;SDS011;4389;41.932;25.904;2023-04-15T08:29:07;4.93;;;2.67;;
8704;SDS011;4389;41.932;25.904;2023-04-15T08:31:34;11.07;;;4.07;;
8704;SDS011;4389;41.932;25.904;2023-04-15T08:34:01;6.83;;;2.97;;
8704;SDS011;4389;41.932;25.904;2023-04-15T08:36:29;5.60;;;2.83;;
8704;SDS011;4389;41.932;25.904;2023-04-15T08:38:56;9.13;;;3.57;;
8704;SDS011;4389;41.932;25.904;2023-04-15T08:41:25;4.60;;;2.57;;
8704;SDS011;4389;41.932;25.904;2023-04-15T08:43:53;12.17;;;3.40;;
8704;SDS011;4389;41.932;25.904;2023-04-15T08:46:22;6.60;;;4.07;;
8704;SDS011;4389;41.932;25.904;2023-04-15T08:48:50;4.63;;;3.50;;
8704;SDS011;4389;41.932;25.904;2023-04-15T08:51:21;5.57;;;3.17;;
8704;SDS011;4389;41.932;25.904;2023-04-15T08:53:51;6.70;;;2.93;;
8704;SDS011;4389;41.932;25.904;2023-04-15T08:56:18;8.53;;;4.67;;
8704;SDS011;4389;41.932;25.904;2023-04-15T08:58:49;5.00;;;3.90;;
8704;SDS011;4389;41.932;25.904;2023-04-15T09:01:17;14.63;;;3.93;;
8704;SDS011;4389;41.932;25.904;2023-04-15T09:03:44;10.43;;;3.53;;
8704;SDS011;4389;41.932;25.904;2023-04-15T09:06:14;5.83;;;2.83;;
8704;SDS011;4389;41.932;25.904;2023-04-15T09:08:42;5.70;;;3.43;;
8704;SDS011;4389;41.932;25.904;2023-04-15T09:11:10;9.23;;;4.50;;
8704;SDS011;4389;41.932;25.904;2023-04-15T09:13:37;5.77;;;2.77;;
8704;SDS011;4389;41.932;25.904;2023-04-15T09:16:05;3.80;;;2.40;;
8704;SDS011;4389;41.932;25.904;2023-04-15T09:18:33;5.60;;;3.30;;
8704;SDS011;4389;41.932;25.904;2023-04-15T09:21:05;7.47;;;3.10;;
8704;SDS011;4389;41.932;25.904;2023-04-15T09:23:33;5.90;;;2.70;;
8704;SDS011;4389;41.932;25.904;2023-04-15T09:26:00;3.10;;;2.67;;
8704;SDS011;4389;41.932;25.904;2023-04-15T09:28:28;9.23;;;3.60;;
8704;SDS011;4389;41.932;25.904;2023-04-15T09:30:55;6.70;;;3.20;;
8704;SDS011;4389;41.932;25.904;2023-04-15T09:33:23;6.63;;;3.70;;
8704;SDS011;4389;41.932;25.904;2023-04-15T09:35:58;6.30;;;4.17;;
8704;SDS011;4389;41.932;25.904;2023-04-15T09:38:26;9.50;;;4.00;;
8704;SDS011;4389;41.932;25.904;2023-04-15T09:40:54;4.50;;;2.67;;
8704;SDS011;4389;41.932;25.904;2023-04-15T09:43:21;5.50;;;3.07;;
8704;SDS011;4389;41.932;25.904;2023-04-15T09:45:51;10.83;;;3.40;;
8704;SDS011;4389;41.932;25.904;2023-04-15T09:48:19;5.33;;;3.00;;
8704;SDS011;4389;41.932;25.904;2023-04-15T09:50:47;12.83;;;4.10;;
8704;SDS011;4389;41.932;25.904;2023-04-15T09:53:15;9.10;;;4.30;;
8704;SDS011;4389;41.932;25.904;2023-04-15T09:55:44;7.67;;;3.03;;
8704;SDS011;4389;41.932;25.904;2023-04-15T09:58:18;8.37;;;3.13;;
8704;SDS011;4389;41.932;25.904;2023-04-15T10:00:46;18.10;;;4.70;;
8704;SDS011;4389;41.932;25.904;2023-04-15T10:03:16;8.83;;;2.67;;
8704;SDS011;4389;41.932;25.904;2023-04-15T10:05:45;5.30;;;2.60;;
8704;SDS011;4389;41.932;25.904;2023-04-15T10:08:13;8.97;;;2.77;;
8704;SDS011;4389;41.932;25.904;2023-04-15T10:10:43;5.97;;;2.93;;
8704;SDS011;4389;41.932;25.904;2023-04-15T10:13:11;5.13;;;3.30;;
8704;SDS011;4389;41.932;25.904;2023-04-15T10:15:39;6.57;;;2.53;;
8704;SDS011;4389;41.932;25.904;2023-04-15T10:18:09;8.43;;;3.10;;
8704;SDS011;4389;41.932;25.904;2023-04-15T10:20:38;6.93;;;3.50;;
8704;SDS011;4389;41.932;25.904;2023-04-15T10:23:07;9.13;;;2.60;;
8704;SDS011;4389;41.932;25.904;2023-04-15T10:25:34;6.90;;;3.57;;
8704;SDS011;4389;41.932;25.904;2023-04-15T10:28:02;10.90;;;4.20;;
8704;SDS011;4389;41.932;25.904;2023-04-15T10:30:30;11.77;;;4.90;;
8704;SDS011;4389;41.932;25.904;2023-04-15T10:32:58;10.47;;;2.90;;
8704;SDS011;4389;41.932;25.904;2023-04-15T10:35:25;7.43;;;2.73;;
8704;SDS011;4389;41.932;25.904;2023-04-15T10:37:56;9.53;;;2.73;;
8704;SDS011;4389;41.932;25.904;2023-04-15T10:40:24;13.83;;;3.57;;
8704;SDS011;4389;41.932;25.904;2023-04-15T10:42:53;9.73;;;4.00;;
8704;SDS011;4389;41.932;25.904;2023-04-15T10:45:20;6.97;;;3.77;;
8704;SDS011;4389;41.932;25.904;2023-04-15T10:47:50;13.90;;;4.10;;
8704;SDS011;4389;41.932;25.904;2023-04-15T10:50:19;8.47;;;4.03;;
8704;SDS011;4389;41.932;25.904;2023-04-15T10:52:49;10.23;;;4.40;;
8704;SDS011;4389;41.932;25.904;2023-04-15T10:55:19;13.93;;;4.20;;
8704;SDS011;4389;41.932;25.904;2023-04-15T10:57:50;8.87;;;4.10;;
8704;SDS011;4389;41.932;25.904;2023-04-15T11:00:19;9.57;;;3.70;;
8704;SDS011;4389;41.932;25.904;2023-04-15T11:02:51;9.97;;;3.63;;
8704;SDS011;4389;41.932;25.904;2023-04-15T11:05:20;10.67;;;4.23;;
8704;SDS011;4389;41.932;25.904;2023-04-15T11:07:52;9.80;;;3.73;;
8704;SDS011;4389;41.932;25.904;2023-04-15T11:13:24;8.40;;;2.97;;
8704;SDS011;4389;41.932;25.904;2023-04-15T11:15:57;8.37;;;3.43;;
8704;SDS011;4389;41.932;25.904;2023-04-15T11:18:26;8.37;;;3.23;;
8704;SDS011;4389;41.932;25.904;2023-04-15T11:20:56;11.47;;;3.73;;
8704;SDS011;4389;41.932;25.904;2023-04-15T11:23:35;7.30;;;3.27;;
8704;SDS011;4389;41.932;25.904;2023-04-15T11:26:07;13.73;;;4.20;;
8704;SDS011;4389;41.932;25.904;2023-04-15T11:28:36;7.43;;;2.93;;
8704;SDS011;4389;41.932;25.904;2023-04-15T11:31:06;9.30;;;2.93;;
8704;SDS011;4389;41.932;25.904;2023-04-15T11:33:35;10.83;;;3.20;;
8704;SDS011;4389;41.932;25.904;2023-04-15T11:36:02;7.87;;;3.00;;
8704;SDS011;4389;41.932;25.904;2023-04-15T11:38:29;8.90;;;3.43;;
8704;SDS011;4389;41.932;25.904;2023-04-15T11:40:56;5.97;;;3.10;;
8704;SDS011;4389;41.932;25.904;2023-04-15T11:43:25;8.07;;;3.17;;
8704;SDS011;4389;41.932;25.904;2023-04-15T11:45:52;11.00;;;3.83;;
8704;SDS011;4389;41.932;25.904;2023-04-15T11:48:21;4.30;;;2.40;;
8704;SDS011;4389;41.932;25.904;2023-04-15T11:50:52;8.60;;;3.30;;
8704;SDS011;4389;41.932;25.904;2023-04-15T11:53:20;8.37;;;3.53;;
8704;SDS011;4389;41.932;25.904;2023-04-15T11:55:47;12.10;;;6.77;;
8704;SDS011;4389;41.932;25.904;2023-04-15T11:58:17;11.17;;;3.83;;
8704;SDS011;4389;41.932;25.904;2023-04-15T12:00:47;4.93;;;2.87;;
8704;SDS011;4389;41.932;25.904;2023-04-15T12:03:20;7.83;;;3.00;;
8704;SDS011;4389;41.932;25.904;2023-04-15T12:06:04;7.20;;;2.90;;
8704;SDS011;4389;41.932;25.904;2023-04-15T12:11:37;7.70;;;2.90;;
8704;SDS011;4389;41.932;25.904;2023-04-15T12:14:06;10.80;;;2.90;;
8704;SDS011;4389;41.932;25.904;2023-04-15T12:16:38;9.63;;;3.17;;
8704;SDS011;4389;41.932;25.904;2023-04-15T12:19:08;9.47;;;3.80;;
8704;SDS011;4389;41.932;25.904;2023-04-15T12:21:37;11.50;;;3.13;;
8704;SDS011;4389;41.932;25.904;2023-04-15T12:24:06;9.60;;;3.17;;
8704;SDS011;4389;41.932;25.904;2023-04-15T12:26:35;9.43;;;3.10;;
8704;SDS011;4389;41.932;25.904;2023-04-15T12:29:04;3.83;;;2.53;;
8704;SDS011;4389;41.932;25.904;2023-04-15T12:31:32;13.33;;;3.60;;
8704;SDS011;4389;41.932;25.904;2023-04-15T12:34:01;10.53;;;3.60;;
8704;SDS011;4389;41.932;25.904;2023-04-15T12:36:30;12.47;;;3.43;;
8704;SDS011;4389;41.932;25.904;2023-04-15T12:39:00;13.27;;;3.50;;
8704;SDS011;4389;41.932;25.904;2023-04-15T12:41:28;12.70;;;3.50;;
8704;SDS011;4389;41.932;25.904;2023-04-15T12:43:55;10.83;;;2.87;;
8704;SDS011;4389;41.932;25.904;2023-04-15T12:46:22;7.57;;;2.70;;
8704;SDS011;4389;41.932;25.904;2023-04-15T12:48:49;9.47;;;2.57;;
8704;SDS011;4389;41.932;25.904;2023-04-15T12:51:17;6.23;;;2.53;;
8704;SDS011;4389;41.932;25.904;2023-04-15T12:53:45;10.03;;;4.03;;
8704;SDS011;4389;41.932;25.904;2023-04-15T12:56:12;7.50;;;2.50;;
8704;SDS011;4389;41.932;25.904;2023-04-15T12:58:39;5.20;;;3.20;;
8704;SDS011;4389;41.932;25.904;2023-04-15T13:01:06;7.03;;;3.97;;
8704;SDS011;4389;41.932;25.904;2023-04-15T13:03:33;7.10;;;2.70;;
8704;SDS011;4389;41.932;25.904;2023-04-15T13:06:00;7.53;;;3.03;;
8704;SDS011;4389;41.932;25.904;2023-04-15T13:08:30;4.77;;;2.47;;
8704;SDS011;4389;41.932;25.904;2023-04-15T13:10:57;5.13;;;3.17;;
8704;SDS011;4389;41.932;25.904;2023-04-15T13:13:24;5.00;;;2.07;;
8704;SDS011;4389;41.932;25.904;2023-04-15T13:15:51;6.07;;;2.80;;
8704;SDS011;4389;41.932;25.904;2023-04-15T13:18:18;6.83;;;2.80;;
8704;SDS011;4389;41.932;25.904;2023-04-15T13:20:45;4.07;;;2.87;;
8704;SDS011;4389;41.932;25.904;2023-04-15T13:23:11;4.37;;;2.27;;
8704;SDS011;4389;41.932;25.904;2023-04-15T13:25:39;6.47;;;2.67;;
8704;SDS011;4389;41.932;25.904;2023-04-15T13:28:06;6.13;;;2.70;;
8704;SDS011;4389;41.932;25.904;2023-04-15T13:30:33;9.30;;;2.60;;
8704;SDS011;4389;41.932;25.904;2023-04-15T13:33:00;8.13;;;2.13;;
8704;SDS011;4389;41.932;25.904;2023-04-15T13:35:27;5.60;;;2.20;;
8704;SDS011;4389;41.932;25.904;2023-04-15T13:37:54;4.30;;;2.37;;
8704;SDS011;4389;41.932;25.904;2023-04-15T13:40:21;9.47;;;2.57;;
8704;SDS011;4389;41.932;25.904;2023-04-15T13:42:50;5.67;;;2.07;;
8704;SDS011;4389;41.932;25.904;2023-04-15T13:45:17;2.33;;;1.60;;
8704;SDS011;4389;41.932;25.904;2023-04-15T13:47:44;6.47;;;2.07;;
8704;SDS011;4389;41.932;25.904;2023-04-15T13:50:11;2.33;;;1.80;;
8704;SDS011;4389;41.932;25.904;2023-04-15T13:52:38;4.97;;;1.80;;
8704;SDS011;4389;41.932;25.904;2023-04-15T13:55:05;4.90;;;1.47;;
8704;SDS011;4389;41.932;25.904;2023-04-15T13:57:32;4.23;;;2.03;;
8704;SDS011;4389;41.932;25.904;2023-04-15T14:00:01;5.37;;;1.80;;
8704;SDS011;4389;41.932;25.904;2023-04-15T14:02:28;5.50;;;2.30;;
8704;SDS011;4389;41.932;25.904;2023-04-15T14:04:55;4.40;;;1.70;;
8704;SDS011;4389;41.932;25.904;2023-04-15T14:07:22;5.53;;;2.37;;
8704;SDS011;4389;41.932;25.904;2023-04-15T14:09:49;4.33;;;2.10;;
8704;SDS011;4389;41.932;25.904;2023-04-15T14:12:16;4.70;;;2.43;;
8704;SDS011;4389;41.932;25.904;2023-04-15T14:14:43;3.90;;;1.90;;
8704;SDS011;4389;41.932;25.904;2023-04-15T14:17:12;4.57;;;2.20;;
8704;SDS011;4389;41.932;25.904;2023-04-15T14:19:39;5.57;;;1.87;;
8704;SDS011;4389;41.932;25.904;2023-04-15T14:22:06;3.43;;;1.97;;
8704;SDS011;4389;41.932;25.904;2023-04-15T14:24:32;3.17;;;1.80;;
8704;SDS011;4389;41.932;25.904;2023-04-15T14:26:59;7.10;;;2.60;;
8704;SDS011;4389;41.932;25.904;2023-04-15T14:29:26;3.63;;;1.73;;
8704;SDS011;4389;41.932;25.904;2023-04-15T14:31:53;8.23;;;2.47;;
8704;SDS011;4389;41.932;25.904;2023-04-15T14:34:22;6.03;;;2.23;;
8704;SDS011;4389;41.932;25.904;2023-04-15T14:36:50;3.97;;;1.97;;
8704;SDS011;4389;41.932;25.904;2023-04-15T14:39:18;6.10;;;2.80;;
8704;SDS011;4389;41.932;25.904;2023-04-15T14:41:45;6.23;;;2.10;;
8704;SDS011;4389;41.932;25.904;2023-04-15T14:44:12;3.93;;;2.13;;
8704;SDS011;4389;41.932;25.904;2023-04-15T14:46:39;5.23;;;2.23;;
8704;SDS011;4389;41.932;25.904;2023-04-15T14:49:06;3.37;;;1.77;;
8704;SDS011;4389;41.932;25.904;2023-04-15T14:51:34;3.73;;;1.90;;
8704;SDS011;4389;41.932;25.904;2023-04-15T14:54:01;7.30;;;2.10;;
8704;SDS011;4389;41.932;25.904;2023-04-15T14:56:28;3.90;;;2.10;;
8704;SDS011;4389;41.932;25.904;2023-04-15T14:58:55;3.93;;;2.20;;
8704;SDS011;4389;41.932;25.904;2023-04-15T15:01:22;4.70;;;2.10;;
8704;SDS011;4389;41.932;25.904;2023-04-15T15:03:49;4.03;;;1.73;;